sensor_id;sensor_type;location;lat;lon;timestamp;P1;durP1;ratioP1;P2;durP2;ratioP2
28523;SDS011;15734;50.904;6.922;2022-11-20T00:01:40;35.35;;;14.25;;
28523;SDS011;15734;50.904;6.922;2022-11-20T00:04:06;30.85;;;14.18;;
28523;SDS011;15734;50.904;6.922;2022-11-20T00:06:33;31.45;;;13.70;;
28523;SDS011;15734;50.904;6.922;2022-11-20T00:08:59;40.15;;;14.10;;
28523;SDS011;15734;50.904;6.922;2022-11-20T00:11:25;38.33;;;14.82;;
28523;SDS011;15734;50.904;6.922;2022-11-20T00:13:56;30.23;;;13.82;;
28523;SDS011;15734;50.904;6.922;2022-11-20T00:16:23;35.40;;;14.43;;
28523;SDS011;15734;50.904;6.922;2022-11-20T00:18:50;30.23;;;13.18;;
28523;SDS011;15734;50.904;6.922;2022-11-20T00:21:19;30.20;;;13.80;;
28523;SDS011;15734;50.904;6.922;2022-11-20T00:23:47;33.20;;;13.88;;
28523;SDS011;15734;50.904;6.922;2022-11-20T00:26:14;28.33;;;12.32;;
28523;SDS011;15734;50.904;6.922;2022-11-20T00:28:41;28.90;;;13.00;;
28523;SDS011;15734;50.904;6.922;2022-11-20T00:31:12;37.75;;;14.30;;
28523;SDS011;15734;50.904;6.922;2022-11-20T00:33:41;33.83;;;13.95;;
28523;SDS011;15734;50.904;6.922;2022-11-20T00:36:09;29.70;;;12.98;;
28523;SDS011;15734;50.904;6.922;2022-11-20T00:38:39;29.77;;;13.88;;
28523;SDS011;15734;50.904;6.922;2022-11-20T00:41:06;27.98;;;12.85;;
28523;SDS011;15734;50.904;6.922;2022-11-20T00:43:33;29.67;;;13.52;;
28523;SDS011;15734;50.904;6.922;2022-11-20T00:46:04;29.33;;;13.43;;
28523;SDS011;15734;50.904;6.922;2022-11-20T00:48:34;34.10;;;13.70;;
28523;SDS011;15734;50.904;6.922;2022-11-20T00:51:00;29.83;;;12.50;;
28523;SDS011;15734;50.904;6.922;2022-11-20T00:53:26;29.67;;;13.23;;
28523;SDS011;15734;50.904;6.922;2022-11-20T00:55:53;29.55;;;13.43;;
28523;SDS011;15734;50.904;6.922;2022-11-20T00:58:23;26.95;;;13.40;;
28523;SDS011;15734;50.904;6.922;2022-11-20T01:00:49;31.50;;;13.48;;
28523;SDS011;15734;50.904;6.922;2022-11-20T01:03:15;28.23;;;12.93;;
28523;SDS011;15734;50.904;6.922;2022-11-20T01:05:42;25.98;;;12.18;;
28523;SDS011;15734;50.904;6.922;2022-11-20T01:08:08;28.35;;;12.55;;
28523;SDS011;15734;50.904;6.922;2022-11-20T01:10:33;27.80;;;12.32;;
28523;SDS011;15734;50.904;6.922;2022-11-20T01:12:59;29.08;;;12.57;;
28523;SDS011;15734;50.904;6.922;2022-11-20T01:15:44;29.52;;;13.57;;
28523;SDS011;15734;50.904;6.922;2022-11-20T01:18:10;26.55;;;12.73;;
28523;SDS011;15734;50.904;6.922;2022-11-20T01:20:36;24.75;;;11.63;;
28523;SDS011;15734;50.904;6.922;2022-11-20T01:23:03;24.35;;;11.45;;
28523;SDS011;15734;50.904;6.922;2022-11-20T01:25:29;28.85;;;12.15;;
28523;SDS011;15734;50.904;6.922;2022-11-20T01:27:55;28.33;;;12.57;;
28523;SDS011;15734;50.904;6.922;2022-11-20T01:30:21;28.15;;;12.55;;
28523;SDS011;15734;50.904;6.922;2022-11-20T01:32:47;27.08;;;12.95;;
28523;SDS011;15734;50.904;6.922;2022-11-20T01:35:13;28.27;;;12.40;;
28523;SDS011;15734;50.904;6.922;2022-11-20T01:37:39;25.33;;;12.43;;
28523;SDS011;15734;50.904;6.922;2022-11-20T01:40:05;30.98;;;13.93;;
28523;SDS011;15734;50.904;6.922;2022-11-20T01:42:31;29.55;;;12.95;;
28523;SDS011;15734;50.904;6.922;2022-11-20T01:45:48;27.90;;;11.65;;
28523;SDS011;15734;50.904;6.922;2022-11-20T01:48:23;26.60;;;12.80;;
28523;SDS011;15734;50.904;6.922;2022-11-20T01:50:54;28.98;;;13.35;;
28523;SDS011;15734;50.904;6.922;2022-11-20T01:53:25;29.70;;;13.02;;
28523;SDS011;15734;50.904;6.922;2022-11-20T01:55:55;31.98;;;13.30;;
28523;SDS011;15734;50.904;6.922;2022-11-20T01:58:25;33.28;;;14.15;;
28523;SDS011;15734;50.904;6.922;2022-11-20T02:00:54;28.38;;;13.27;;
28523;SDS011;15734;50.904;6.922;2022-11-20T02:03:20;28.75;;;12.80;;
28523;SDS011;15734;50.904;6.922;2022-11-20T02:05:48;33.75;;;13.20;;
28523;SDS011;15734;50.904;6.922;2022-11-20T02:08:28;32.70;;;12.85;;
28523;SDS011;15734;50.904;6.922;2022-11-20T02:10:55;34.45;;;14.13;;
28523;SDS011;15734;50.904;6.922;2022-11-20T02:13:20;32.83;;;12.77;;
28523;SDS011;15734;50.904;6.922;2022-11-20T02:18:33;29.63;;;13.25;;
28523;SDS011;15734;50.904;6.922;2022-11-20T02:21:01;30.73;;;12.90;;
28523;SDS011;15734;50.904;6.922;2022-11-20T02:26:30;32.03;;;13.98;;
28523;SDS011;15734;50.904;6.922;2022-11-20T02:28:59;33.30;;;13.38;;
28523;SDS011;15734;50.904;6.922;2022-11-20T02:31:26;31.48;;;14.85;;
28523;SDS011;15734;50.904;6.922;2022-11-20T02:33:55;37.90;;;14.35;;
28523;SDS011;15734;50.904;6.922;2022-11-20T02:36:22;29.95;;;14.10;;
28523;SDS011;15734;50.904;6.922;2022-11-20T02:38:51;31.30;;;13.63;;
28523;SDS011;15734;50.904;6.922;2022-11-20T02:41:16;30.92;;;13.45;;
28523;SDS011;15734;50.904;6.922;2022-11-20T02:43:42;32.40;;;14.63;;
28523;SDS011;15734;50.904;6.922;2022-11-20T02:46:08;36.53;;;12.85;;
28523;SDS011;15734;50.904;6.922;2022-11-20T02:48:34;37.88;;;13.65;;
28523;SDS011;15734;50.904;6.922;2022-11-20T02:50:59;31.67;;;13.75;;
28523;SDS011;15734;50.904;6.922;2022-11-20T02:53:25;32.75;;;13.90;;
28523;SDS011;15734;50.904;6.922;2022-11-20T02:55:50;29.88;;;13.60;;
28523;SDS011;15734;50.904;6.922;2022-11-20T02:58:16;30.33;;;12.75;;
28523;SDS011;15734;50.904;6.922;2022-11-20T03:00:41;25.65;;;12.45;;
28523;SDS011;15734;50.904;6.922;2022-11-20T03:03:07;29.88;;;13.50;;
28523;SDS011;15734;50.904;6.922;2022-11-20T03:05:32;29.67;;;13.20;;
28523;SDS011;15734;50.904;6.922;2022-11-20T03:07:58;31.55;;;13.55;;
28523;SDS011;15734;50.904;6.922;2022-11-20T03:10:24;32.45;;;13.48;;
28523;SDS011;15734;50.904;6.922;2022-11-20T03:12:55;28.63;;;12.48;;
28523;SDS011;15734;50.904;6.922;2022-11-20T03:15:22;26.63;;;13.10;;
28523;SDS011;15734;50.904;6.922;2022-11-20T03:17:48;27.05;;;12.23;;
28523;SDS011;15734;50.904;6.922;2022-11-20T03:20:13;27.50;;;13.00;;
28523;SDS011;15734;50.904;6.922;2022-11-20T03:22:39;29.98;;;13.60;;
28523;SDS011;15734;50.904;6.922;2022-11-20T03:25:05;27.23;;;12.15;;
28523;SDS011;15734;50.904;6.922;2022-11-20T03:27:31;31.95;;;13.00;;
28523;SDS011;15734;50.904;6.922;2022-11-20T03:29:59;29.45;;;12.52;;
28523;SDS011;15734;50.904;6.922;2022-11-20T03:32:24;29.42;;;12.68;;
28523;SDS011;15734;50.904;6.922;2022-11-20T03:34:50;26.63;;;12.93;;
28523;SDS011;15734;50.904;6.922;2022-11-20T03:37:15;29.15;;;13.23;;
28523;SDS011;15734;50.904;6.922;2022-11-20T03:39:41;30.75;;;12.90;;
28523;SDS011;15734;50.904;6.922;2022-11-20T03:42:06;26.88;;;12.82;;
28523;SDS011;15734;50.904;6.922;2022-11-20T03:44:53;28.58;;;12.93;;
28523;SDS011;15734;50.904;6.922;2022-11-20T03:47:18;25.42;;;11.48;;
28523;SDS011;15734;50.904;6.922;2022-11-20T03:49:44;27.70;;;12.73;;
28523;SDS011;15734;50.904;6.922;2022-11-20T03:52:09;28.50;;;12.63;;
28523;SDS011;15734;50.904;6.922;2022-11-20T03:54:35;26.70;;;11.45;;
28523;SDS011;15734;50.904;6.922;2022-11-20T03:57:00;28.33;;;12.00;;
28523;SDS011;15734;50.904;6.922;2022-11-20T03:59:26;30.20;;;13.27;;
28523;SDS011;15734;50.904;6.922;2022-11-20T04:01:51;34.03;;;13.73;;
28523;SDS011;15734;50.904;6.922;2022-11-20T04:04:17;29.92;;;13.77;;
28523;SDS011;15734;50.904;6.922;2022-11-20T04:06:42;37.83;;;13.63;;
28523;SDS011;15734;50.904;6.922;2022-11-20T04:09:08;32.95;;;14.02;;
28523;SDS011;15734;50.904;6.922;2022-11-20T04:11:35;31.77;;;13.38;;
28523;SDS011;15734;50.904;6.922;2022-11-20T04:14:03;30.02;;;12.95;;
28523;SDS011;15734;50.904;6.922;2022-11-20T04:16:32;28.58;;;12.88;;
28523;SDS011;15734;50.904;6.922;2022-11-20T04:18:59;31.17;;;13.85;;
28523;SDS011;15734;50.904;6.922;2022-11-20T04:21:27;34.80;;;14.35;;
28523;SDS011;15734;50.904;6.922;2022-11-20T04:23:53;36.70;;;15.52;;
28523;SDS011;15734;50.904;6.922;2022-11-20T04:26:19;38.05;;;15.07;;
28523;SDS011;15734;50.904;6.922;2022-11-20T04:28:46;37.47;;;15.23;;
28523;SDS011;15734;50.904;6.922;2022-11-20T04:31:13;38.70;;;15.65;;
28523;SDS011;15734;50.904;6.922;2022-11-20T04:33:40;33.53;;;14.10;;
28523;SDS011;15734;50.904;6.922;2022-11-20T04:36:07;37.63;;;15.32;;
28523;SDS011;15734;50.904;6.922;2022-11-20T04:38:35;34.20;;;14.80;;
28523;SDS011;15734;50.904;6.922;2022-11-20T04:41:02;33.22;;;14.88;;
28523;SDS011;15734;50.904;6.922;2022-11-20T04:43:29;33.58;;;14.93;;
28523;SDS011;15734;50.904;6.922;2022-11-20T04:45:55;34.33;;;14.73;;
28523;SDS011;15734;50.904;6.922;2022-11-20T04:48:22;40.03;;;15.70;;
28523;SDS011;15734;50.904;6.922;2022-11-20T04:50:48;35.10;;;14.50;;
28523;SDS011;15734;50.904;6.922;2022-11-20T04:53:13;36.10;;;14.15;;
28523;SDS011;15734;50.904;6.922;2022-11-20T04:55:39;34.63;;;14.57;;
28523;SDS011;15734;50.904;6.922;2022-11-20T04:58:04;39.85;;;15.93;;
28523;SDS011;15734;50.904;6.922;2022-11-20T05:00:30;35.92;;;16.80;;
28523;SDS011;15734;50.904;6.922;2022-11-20T05:02:55;35.15;;;15.70;;
28523;SDS011;15734;50.904;6.922;2022-11-20T05:05:21;40.95;;;16.77;;
28523;SDS011;15734;50.904;6.922;2022-11-20T05:07:47;39.05;;;15.48;;
28523;SDS011;15734;50.904;6.922;2022-11-20T05:10:12;38.70;;;14.85;;
28523;SDS011;15734;50.904;6.922;2022-11-20T05:12:38;36.17;;;15.45;;
28523;SDS011;15734;50.904;6.922;2022-11-20T05:15:03;38.45;;;14.95;;
28523;SDS011;15734;50.904;6.922;2022-11-20T05:17:29;37.78;;;15.77;;
28523;SDS011;15734;50.904;6.922;2022-11-20T05:19:55;40.35;;;17.67;;
28523;SDS011;15734;50.904;6.922;2022-11-20T05:22:20;39.75;;;16.92;;
28523;SDS011;15734;50.904;6.922;2022-11-20T05:24:46;40.92;;;15.52;;
28523;SDS011;15734;50.904;6.922;2022-11-20T05:27:11;40.55;;;15.73;;
28523;SDS011;15734;50.904;6.922;2022-11-20T05:29:37;41.25;;;16.50;;
28523;SDS011;15734;50.904;6.922;2022-11-20T05:32:02;36.67;;;15.63;;
28523;SDS011;15734;50.904;6.922;2022-11-20T05:34:28;35.20;;;15.25;;
28523;SDS011;15734;50.904;6.922;2022-11-20T05:36:53;43.05;;;17.50;;
28523;SDS011;15734;50.904;6.922;2022-11-20T05:39:19;40.95;;;16.35;;
28523;SDS011;15734;50.904;6.922;2022-11-20T05:41:44;43.53;;;17.77;;
28523;SDS011;15734;50.904;6.922;2022-11-20T05:44:10;45.22;;;17.63;;
28523;SDS011;15734;50.904;6.922;2022-11-20T05:46:36;39.92;;;17.42;;
28523;SDS011;15734;50.904;6.922;2022-11-20T05:49:01;42.13;;;16.48;;
28523;SDS011;15734;50.904;6.922;2022-11-20T05:51:27;39.58;;;15.95;;
28523;SDS011;15734;50.904;6.922;2022-11-20T05:53:53;36.55;;;15.13;;
28523;SDS011;15734;50.904;6.922;2022-11-20T05:56:19;38.33;;;15.23;;
28523;SDS011;15734;50.904;6.922;2022-11-20T05:58:46;40.75;;;15.88;;
28523;SDS011;15734;50.904;6.922;2022-11-20T06:01:19;40.00;;;15.95;;
28523;SDS011;15734;50.904;6.922;2022-11-20T06:03:46;40.55;;;15.90;;
28523;SDS011;15734;50.904;6.922;2022-11-20T06:06:13;37.95;;;16.25;;
28523;SDS011;15734;50.904;6.922;2022-11-20T06:08:39;38.22;;;16.15;;
28523;SDS011;15734;50.904;6.922;2022-11-20T06:11:06;42.53;;;17.77;;
28523;SDS011;15734;50.904;6.922;2022-11-20T06:13:33;40.38;;;16.17;;
28523;SDS011;15734;50.904;6.922;2022-11-20T06:15:59;38.47;;;16.27;;
28523;SDS011;15734;50.904;6.922;2022-11-20T06:18:26;36.10;;;15.05;;
28523;SDS011;15734;50.904;6.922;2022-11-20T06:21:03;42.78;;;15.88;;
28523;SDS011;15734;50.904;6.922;2022-11-20T06:23:33;37.45;;;15.98;;
28523;SDS011;15734;50.904;6.922;2022-11-20T06:26:03;38.00;;;15.73;;
28523;SDS011;15734;50.904;6.922;2022-11-20T06:28:32;43.25;;;17.27;;
28523;SDS011;15734;50.904;6.922;2022-11-20T06:30:57;39.65;;;15.07;;
28523;SDS011;15734;50.904;6.922;2022-11-20T06:33:23;41.35;;;16.20;;
28523;SDS011;15734;50.904;6.922;2022-11-20T06:35:49;41.33;;;16.48;;
28523;SDS011;15734;50.904;6.922;2022-11-20T06:40:50;37.33;;;16.23;;
28523;SDS011;15734;50.904;6.922;2022-11-20T06:43:16;40.35;;;16.67;;
28523;SDS011;15734;50.904;6.922;2022-11-20T06:45:42;42.47;;;18.35;;
28523;SDS011;15734;50.904;6.922;2022-11-20T06:48:07;43.25;;;16.70;;
28523;SDS011;15734;50.904;6.922;2022-11-20T06:50:34;35.83;;;15.73;;
28523;SDS011;15734;50.904;6.922;2022-11-20T06:53:03;41.60;;;17.52;;
28523;SDS011;15734;50.904;6.922;2022-11-20T06:55:30;42.53;;;16.15;;
28523;SDS011;15734;50.904;6.922;2022-11-20T06:57:56;44.67;;;17.73;;
28523;SDS011;15734;50.904;6.922;2022-11-20T07:00:22;43.53;;;17.75;;
28523;SDS011;15734;50.904;6.922;2022-11-20T07:02:48;45.78;;;18.27;;
28523;SDS011;15734;50.904;6.922;2022-11-20T07:05:13;41.45;;;16.55;;
28523;SDS011;15734;50.904;6.922;2022-11-20T07:07:39;42.97;;;15.80;;
28523;SDS011;15734;50.904;6.922;2022-11-20T07:10:05;43.25;;;16.42;;
28523;SDS011;15734;50.904;6.922;2022-11-20T07:12:30;40.85;;;16.15;;
28523;SDS011;15734;50.904;6.922;2022-11-20T07:14:56;50.58;;;18.65;;
28523;SDS011;15734;50.904;6.922;2022-11-20T07:17:21;36.50;;;16.85;;
28523;SDS011;15734;50.904;6.922;2022-11-20T07:19:47;38.67;;;16.13;;
28523;SDS011;15734;50.904;6.922;2022-11-20T07:22:12;42.38;;;16.35;;
28523;SDS011;15734;50.904;6.922;2022-11-20T07:24:38;44.45;;;16.63;;
28523;SDS011;15734;50.904;6.922;2022-11-20T07:27:04;38.92;;;16.58;;
28523;SDS011;15734;50.904;6.922;2022-11-20T07:29:30;38.95;;;16.20;;
28523;SDS011;15734;50.904;6.922;2022-11-20T07:31:55;38.70;;;17.42;;
28523;SDS011;15734;50.904;6.922;2022-11-20T07:34:21;40.40;;;16.08;;
28523;SDS011;15734;50.904;6.922;2022-11-20T07:36:47;38.45;;;15.07;;
28523;SDS011;15734;50.904;6.922;2022-11-20T07:39:12;44.88;;;16.77;;
28523;SDS011;15734;50.904;6.922;2022-11-20T07:41:38;38.05;;;16.52;;
28523;SDS011;15734;50.904;6.922;2022-11-20T07:44:04;37.08;;;14.95;;
28523;SDS011;15734;50.904;6.922;2022-11-20T07:46:29;35.50;;;16.08;;
28523;SDS011;15734;50.904;6.922;2022-11-20T07:48:55;45.90;;;16.20;;
28523;SDS011;15734;50.904;6.922;2022-11-20T07:51:21;35.70;;;14.27;;
28523;SDS011;15734;50.904;6.922;2022-11-20T07:53:47;36.58;;;15.05;;
28523;SDS011;15734;50.904;6.922;2022-11-20T07:56:12;38.42;;;15.70;;
28523;SDS011;15734;50.904;6.922;2022-11-20T07:58:39;38.80;;;15.90;;
28523;SDS011;15734;50.904;6.922;2022-11-20T08:01:05;39.08;;;16.65;;
28523;SDS011;15734;50.904;6.922;2022-11-20T08:03:32;35.83;;;16.10;;
28523;SDS011;15734;50.904;6.922;2022-11-20T08:05:58;41.38;;;15.98;;
28523;SDS011;15734;50.904;6.922;2022-11-20T08:08:25;38.60;;;16.75;;
28523;SDS011;15734;50.904;6.922;2022-11-20T08:10:51;40.08;;;17.60;;
28523;SDS011;15734;50.904;6.922;2022-11-20T08:13:16;41.30;;;15.65;;
28523;SDS011;15734;50.904;6.922;2022-11-20T08:16:00;34.83;;;15.70;;
28523;SDS011;15734;50.904;6.922;2022-11-20T08:18:26;39.65;;;17.52;;
28523;SDS011;15734;50.904;6.922;2022-11-20T08:20:51;37.53;;;14.73;;
28523;SDS011;15734;50.904;6.922;2022-11-20T08:23:17;36.88;;;17.00;;
28523;SDS011;15734;50.904;6.922;2022-11-20T08:25:42;42.45;;;17.48;;
28523;SDS011;15734;50.904;6.922;2022-11-20T08:28:08;44.70;;;17.08;;
28523;SDS011;15734;50.904;6.922;2022-11-20T08:30:35;47.45;;;18.95;;
28523;SDS011;15734;50.904;6.922;2022-11-20T08:33:02;43.42;;;16.73;;
28523;SDS011;15734;50.904;6.922;2022-11-20T08:35:29;41.88;;;17.60;;
28523;SDS011;15734;50.904;6.922;2022-11-20T08:37:58;42.28;;;17.50;;
28523;SDS011;15734;50.904;6.922;2022-11-20T08:40:24;44.38;;;18.25;;
28523;SDS011;15734;50.904;6.922;2022-11-20T08:42:50;38.65;;;17.85;;
28523;SDS011;15734;50.904;6.922;2022-11-20T08:45:17;41.40;;;16.20;;
28523;SDS011;15734;50.904;6.922;2022-11-20T08:47:43;43.28;;;17.38;;
28523;SDS011;15734;50.904;6.922;2022-11-20T08:50:10;49.30;;;20.25;;
28523;SDS011;15734;50.904;6.922;2022-11-20T08:52:36;48.22;;;18.98;;
28523;SDS011;15734;50.904;6.922;2022-11-20T08:55:03;45.95;;;18.25;;
28523;SDS011;15734;50.904;6.922;2022-11-20T08:57:33;42.17;;;17.15;;
28523;SDS011;15734;50.904;6.922;2022-11-20T08:59:59;45.55;;;18.63;;
28523;SDS011;15734;50.904;6.922;2022-11-20T09:02:25;44.90;;;17.85;;
28523;SDS011;15734;50.904;6.922;2022-11-20T09:04:50;47.00;;;18.63;;
28523;SDS011;15734;50.904;6.922;2022-11-20T09:07:16;44.22;;;18.58;;
28523;SDS011;15734;50.904;6.922;2022-11-20T09:09:42;55.83;;;17.85;;
28523;SDS011;15734;50.904;6.922;2022-11-20T09:12:07;43.05;;;16.92;;
28523;SDS011;15734;50.904;6.922;2022-11-20T09:14:33;50.63;;;18.17;;
28523;SDS011;15734;50.904;6.922;2022-11-20T09:16:58;36.75;;;16.52;;
28523;SDS011;15734;50.904;6.922;2022-11-20T09:19:24;41.35;;;17.52;;
28523;SDS011;15734;50.904;6.922;2022-11-20T09:21:50;44.00;;;18.70;;
28523;SDS011;15734;50.904;6.922;2022-11-20T09:24:16;41.38;;;16.52;;
28523;SDS011;15734;50.904;6.922;2022-11-20T09:26:42;35.65;;;15.63;;
28523;SDS011;15734;50.904;6.922;2022-11-20T09:29:08;41.80;;;16.77;;
28523;SDS011;15734;50.904;6.922;2022-11-20T09:31:34;40.72;;;15.68;;
28523;SDS011;15734;50.904;6.922;2022-11-20T09:33:59;37.67;;;15.40;;
28523;SDS011;15734;50.904;6.922;2022-11-20T09:36:25;39.15;;;16.33;;
28523;SDS011;15734;50.904;6.922;2022-11-20T09:38:51;37.05;;;15.00;;
28523;SDS011;15734;50.904;6.922;2022-11-20T09:41:34;39.83;;;14.57;;
28523;SDS011;15734;50.904;6.922;2022-11-20T09:44:04;41.78;;;17.23;;
28523;SDS011;15734;50.904;6.922;2022-11-20T09:47:08;38.30;;;15.32;;
28523;SDS011;15734;50.904;6.922;2022-11-20T09:54:49;40.47;;;16.58;;
28523;SDS011;15734;50.904;6.922;2022-11-20T09:57:20;43.35;;;17.27;;
28523;SDS011;15734;50.904;6.922;2022-11-20T09:59:50;37.22;;;15.75;;
28523;SDS011;15734;50.904;6.922;2022-11-20T10:05:11;41.22;;;18.58;;
28523;SDS011;15734;50.904;6.922;2022-11-20T10:22:34;46.92;;;18.75;;
28523;SDS011;15734;50.904;6.922;2022-11-20T10:25:19;45.78;;;19.02;;
28523;SDS011;15734;50.904;6.922;2022-11-20T10:30:42;51.85;;;20.00;;
28523;SDS011;15734;50.904;6.922;2022-11-20T10:33:21;48.08;;;17.05;;
28523;SDS011;15734;50.904;6.922;2022-11-20T10:40:51;44.72;;;18.13;;
28523;SDS011;15734;50.904;6.922;2022-11-20T10:43:39;42.92;;;17.45;;
28523;SDS011;15734;50.904;6.922;2022-11-20T10:46:08;42.85;;;17.08;;
28523;SDS011;15734;50.904;6.922;2022-11-20T10:48:40;40.20;;;17.95;;
28523;SDS011;15734;50.904;6.922;2022-11-20T10:51:25;45.88;;;17.75;;
28523;SDS011;15734;50.904;6.922;2022-11-20T11:00:04;41.38;;;17.65;;
28523;SDS011;15734;50.904;6.922;2022-11-20T11:02:53;42.78;;;18.17;;
28523;SDS011;15734;50.904;6.922;2022-11-20T11:05:22;43.33;;;18.38;;
28523;SDS011;15734;50.904;6.922;2022-11-20T11:08:10;45.58;;;19.33;;
28523;SDS011;15734;50.904;6.922;2022-11-20T11:10:56;47.85;;;17.50;;
28523;SDS011;15734;50.904;6.922;2022-11-20T11:15:52;39.85;;;17.13;;
28523;SDS011;15734;50.904;6.922;2022-11-20T11:18:25;48.22;;;17.88;;
28523;SDS011;15734;50.904;6.922;2022-11-20T11:20:58;38.85;;;16.55;;
28523;SDS011;15734;50.904;6.922;2022-11-20T11:26:02;42.83;;;17.40;;
28523;SDS011;15734;50.904;6.922;2022-11-20T11:28:31;44.20;;;15.82;;
28523;SDS011;15734;50.904;6.922;2022-11-20T11:30:57;44.03;;;17.95;;
28523;SDS011;15734;50.904;6.922;2022-11-20T11:33:23;44.10;;;17.83;;
28523;SDS011;15734;50.904;6.922;2022-11-20T11:35:52;40.95;;;17.88;;
28523;SDS011;15734;50.904;6.922;2022-11-20T11:38:23;40.92;;;15.70;;
28523;SDS011;15734;50.904;6.922;2022-11-20T11:41:16;42.55;;;16.83;;
28523;SDS011;15734;50.904;6.922;2022-11-20T11:43:54;46.75;;;18.88;;
28523;SDS011;15734;50.904;6.922;2022-11-20T11:46:44;40.50;;;17.20;;
28523;SDS011;15734;50.904;6.922;2022-11-20T11:49:18;40.53;;;17.40;;
28523;SDS011;15734;50.904;6.922;2022-11-20T12:00:17;43.20;;;18.15;;
28523;SDS011;15734;50.904;6.922;2022-11-20T12:05:29;38.25;;;16.58;;
28523;SDS011;15734;50.904;6.922;2022-11-20T12:13:34;39.75;;;16.00;;
28523;SDS011;15734;50.904;6.922;2022-11-20T12:16:11;40.65;;;16.60;;
28523;SDS011;15734;50.904;6.922;2022-11-20T12:18:39;45.65;;;16.58;;
28523;SDS011;15734;50.904;6.922;2022-11-20T12:21:17;45.78;;;17.13;;
28523;SDS011;15734;50.904;6.922;2022-11-20T12:23:55;40.28;;;16.77;;
28523;SDS011;15734;50.904;6.922;2022-11-20T12:33:33;40.40;;;17.02;;
28523;SDS011;15734;50.904;6.922;2022-11-20T12:41:36;39.90;;;16.92;;
28523;SDS011;15734;50.904;6.922;2022-11-20T12:50:47;43.95;;;16.58;;
28523;SDS011;15734;50.904;6.922;2022-11-20T12:53:34;44.63;;;17.73;;
28523;SDS011;15734;50.904;6.922;2022-11-20T12:59:21;35.13;;;15.45;;
28523;SDS011;15734;50.904;6.922;2022-11-20T13:02:05;36.33;;;16.10;;
28523;SDS011;15734;50.904;6.922;2022-11-20T13:07:43;36.83;;;16.13;;
28523;SDS011;15734;50.904;6.922;2022-11-20T13:13:40;37.58;;;15.75;;
28523;SDS011;15734;50.904;6.922;2022-11-20T13:16:10;39.50;;;16.90;;
28523;SDS011;15734;50.904;6.922;2022-11-20T13:18:47;41.50;;;16.65;;
28523;SDS011;15734;50.904;6.922;2022-11-20T13:21:13;40.58;;;15.70;;
28523;SDS011;15734;50.904;6.922;2022-11-20T13:23:40;38.00;;;15.05;;
28523;SDS011;15734;50.904;6.922;2022-11-20T13:26:13;37.53;;;15.23;;
28523;SDS011;15734;50.904;6.922;2022-11-20T13:28:47;37.92;;;16.38;;
28523;SDS011;15734;50.904;6.922;2022-11-20T13:31:31;33.53;;;14.43;;
28523;SDS011;15734;50.904;6.922;2022-11-20T13:33:59;40.80;;;16.08;;
28523;SDS011;15734;50.904;6.922;2022-11-20T13:36:27;37.78;;;16.45;;
28523;SDS011;15734;50.904;6.922;2022-11-20T13:38:54;40.67;;;17.23;;
28523;SDS011;15734;50.904;6.922;2022-11-20T13:44:44;34.20;;;16.08;;
28523;SDS011;15734;50.904;6.922;2022-11-20T13:46:49;33.67;;;15.50;;
28523;SDS011;15734;50.904;6.922;2022-11-20T13:49:20;40.58;;;15.95;;
28523;SDS011;15734;50.904;6.922;2022-11-20T13:51:51;37.78;;;16.38;;
28523;SDS011;15734;50.904;6.922;2022-11-20T13:54:27;38.35;;;16.60;;
28523;SDS011;15734;50.904;6.922;2022-11-20T14:00:18;38.78;;;15.32;;
28523;SDS011;15734;50.904;6.922;2022-11-20T14:02:53;44.55;;;16.95;;
28523;SDS011;15734;50.904;6.922;2022-11-20T14:05:23;45.67;;;18.10;;
28523;SDS011;15734;50.904;6.922;2022-11-20T14:07:49;46.50;;;16.77;;
28523;SDS011;15734;50.904;6.922;2022-11-20T14:10:24;40.40;;;17.17;;
28523;SDS011;15734;50.904;6.922;2022-11-20T14:12:51;42.22;;;15.88;;
28523;SDS011;15734;50.904;6.922;2022-11-20T14:15:28;40.70;;;16.77;;
28523;SDS011;15734;50.904;6.922;2022-11-20T14:17:54;41.42;;;16.85;;
28523;SDS011;15734;50.904;6.922;2022-11-20T14:20:20;38.28;;;15.73;;
28523;SDS011;15734;50.904;6.922;2022-11-20T14:22:53;39.17;;;16.73;;
28523;SDS011;15734;50.904;6.922;2022-11-20T14:25:20;45.20;;;17.42;;
28523;SDS011;15734;50.904;6.922;2022-11-20T14:27:55;42.35;;;16.63;;
28523;SDS011;15734;50.904;6.922;2022-11-20T14:30:23;41.45;;;15.93;;
28523;SDS011;15734;50.904;6.922;2022-11-20T14:33:09;40.58;;;18.05;;
28523;SDS011;15734;50.904;6.922;2022-11-20T14:35:40;46.17;;;17.45;;
28523;SDS011;15734;50.904;6.922;2022-11-20T14:38:11;43.30;;;17.00;;
28523;SDS011;15734;50.904;6.922;2022-11-20T14:40:39;42.28;;;17.50;;
28523;SDS011;15734;50.904;6.922;2022-11-20T14:43:18;43.75;;;18.88;;
28523;SDS011;15734;50.904;6.922;2022-11-20T14:48:31;38.97;;;17.17;;
28523;SDS011;15734;50.904;6.922;2022-11-20T14:51:00;38.10;;;16.20;;
28523;SDS011;15734;50.904;6.922;2022-11-20T14:53:25;42.22;;;17.65;;
28523;SDS011;15734;50.904;6.922;2022-11-20T14:55:55;41.83;;;17.50;;
28523;SDS011;15734;50.904;6.922;2022-11-20T14:58:28;36.10;;;15.50;;
28523;SDS011;15734;50.904;6.922;2022-11-20T15:00:57;42.92;;;16.27;;
28523;SDS011;15734;50.904;6.922;2022-11-20T15:03:34;37.35;;;15.77;;
28523;SDS011;15734;50.904;6.922;2022-11-20T15:06:05;37.28;;;15.65;;
28523;SDS011;15734;50.904;6.922;2022-11-20T15:08:32;34.65;;;15.27;;
28523;SDS011;15734;50.904;6.922;2022-11-20T15:10:58;33.92;;;16.30;;
28523;SDS011;15734;50.904;6.922;2022-11-20T15:13:31;35.42;;;15.63;;
28523;SDS011;15734;50.904;6.922;2022-11-20T15:16:00;42.10;;;18.15;;
28523;SDS011;15734;50.904;6.922;2022-11-20T15:18:36;45.30;;;17.90;;
28523;SDS011;15734;50.904;6.922;2022-11-20T15:21:03;41.45;;;17.30;;
28523;SDS011;15734;50.904;6.922;2022-11-20T15:23:35;48.65;;;19.15;;
28523;SDS011;15734;50.904;6.922;2022-11-20T15:26:01;42.08;;;18.30;;
28523;SDS011;15734;50.904;6.922;2022-11-20T15:28:33;48.22;;;19.95;;
28523;SDS011;15734;50.904;6.922;2022-11-20T15:31:02;42.17;;;19.33;;
28523;SDS011;15734;50.904;6.922;2022-11-20T15:33:28;53.20;;;19.58;;
28523;SDS011;15734;50.904;6.922;2022-11-20T15:35:54;41.85;;;19.15;;
28523;SDS011;15734;50.904;6.922;2022-11-20T15:38:20;52.40;;;19.25;;
28523;SDS011;15734;50.904;6.922;2022-11-20T15:40:49;45.50;;;17.90;;
28523;SDS011;15734;50.904;6.922;2022-11-20T15:43:15;51.05;;;18.95;;
28523;SDS011;15734;50.904;6.922;2022-11-20T15:45:41;40.03;;;16.38;;
28523;SDS011;15734;50.904;6.922;2022-11-20T15:48:22;46.75;;;16.58;;
28523;SDS011;15734;50.904;6.922;2022-11-20T15:50:56;41.03;;;18.40;;
28523;SDS011;15734;50.904;6.922;2022-11-20T15:53:23;42.78;;;17.00;;
28523;SDS011;15734;50.904;6.922;2022-11-20T15:55:49;38.88;;;16.48;;
28523;SDS011;15734;50.904;6.922;2022-11-20T15:58:14;42.55;;;16.92;;
28523;SDS011;15734;50.904;6.922;2022-11-20T16:00:41;41.75;;;17.45;;
28523;SDS011;15734;50.904;6.922;2022-11-20T16:03:11;43.22;;;17.58;;
28523;SDS011;15734;50.904;6.922;2022-11-20T16:05:38;33.75;;;15.45;;
28523;SDS011;15734;50.904;6.922;2022-11-20T16:08:04;36.67;;;14.73;;
28523;SDS011;15734;50.904;6.922;2022-11-20T16:10:29;38.33;;;15.05;;
28523;SDS011;15734;50.904;6.922;2022-11-20T16:12:55;40.40;;;15.45;;
28523;SDS011;15734;50.904;6.922;2022-11-20T16:15:39;35.88;;;16.17;;